createdAt,value
2019-05-18T00:00:16.226Z,0.00
2019-05-18T00:01:16.134Z,0.00
2019-05-18T00:02:16.026Z,0.00
2019-05-18T00:03:15.944Z,0.00
2019-05-18T00:04:15.825Z,0.00
2019-05-18T00:05:15.725Z,0.00
2019-05-18T00:06:15.624Z,0.00
2019-05-18T00:07:15.526Z,0.00
2019-05-18T00:08:15.422Z,0.00
2019-05-18T00:09:15.323Z,0.00
2019-05-18T00:10:15.223Z,0.00
2019-05-18T00:11:15.127Z,0.00
2019-05-18T00:12:15.048Z,0.00
2019-05-18T00:13:14.979Z,0.00
2019-05-18T00:14:14.821Z,0.00
2019-05-18T00:15:14.734Z,0.00
2019-05-18T00:16:14.618Z,0.00
2019-05-18T00:17:24.858Z,0.00
2019-05-18T00:18:14.419Z,0.00
2019-05-18T00:19:14.317Z,0.00
2019-05-18T00:20:14.217Z,0.00
2019-05-18T00:21:14.124Z,0.00
2019-05-18T00:22:14.014Z,0.00
2019-05-18T00:23:13.911Z,0.00
2019-05-18T00:24:13.813Z,0.00
2019-05-18T00:25:13.712Z,0.00
2019-05-18T00:26:13.613Z,0.00
2019-05-18T00:27:13.516Z,0.00
2019-05-18T00:28:13.409Z,0.00
2019-05-18T00:29:13.310Z,0.00
2019-05-18T00:30:13.212Z,0.00
2019-05-18T00:31:13.109Z,0.00
2019-05-18T00:32:13.021Z,0.00
2019-05-18T00:33:12.957Z,0.00
2019-05-18T00:34:12.805Z,0.00
2019-05-18T00:35:12.706Z,0.00
2019-05-18T00:36:12.604Z,0.00
2019-05-18T00:37:12.502Z,0.00
2019-05-18T00:38:12.414Z,0.00
2019-05-18T00:39:12.302Z,0.00
2019-05-18T00:40:12.199Z,0.00
2019-05-18T00:41:12.100Z,0.00
2019-05-18T00:42:12.004Z,0.00
2019-05-18T00:43:11.903Z,0.00
2019-05-18T00:44:11.806Z,0.00
2019-05-18T00:45:11.697Z,0.00
2019-05-18T00:46:11.596Z,0.00
2019-05-18T00:47:11.495Z,0.00
2019-05-18T00:48:11.391Z,0.00
2019-05-18T00:49:11.292Z,0.00
2019-05-18T00:50:11.190Z,0.00
2019-05-18T00:51:11.090Z,0.00
2019-05-18T00:52:11.010Z,0.00
2019-05-18T00:53:10.927Z,0.00
2019-05-18T00:54:10.809Z,0.00
2019-05-18T00:55:10.688Z,0.00
2019-05-18T00:56:10.587Z,0.00
2019-05-18T00:57:10.483Z,0.00
2019-05-18T00:58:10.385Z,0.00
2019-05-18T00:59:15.679Z,0.00
2019-05-18T01:00:10.181Z,0.00
2019-05-18T01:01:10.081Z,0.00
2019-05-18T01:02:09.984Z,0.00
2019-05-18T01:03:09.881Z,0.00
2019-05-18T01:04:09.778Z,0.00
2019-05-18T01:05:09.675Z,0.00
2019-05-18T01:06:09.581Z,0.00
2019-05-18T01:07:09.474Z,0.00
2019-05-18T01:08:09.372Z,0.00
2019-05-18T01:09:09.272Z,0.00
2019-05-18T01:10:09.172Z,0.00
2019-05-18T01:11:09.069Z,0.00
2019-05-18T01:12:08.968Z,0.00
2019-05-18T01:13:08.912Z,0.00
2019-05-18T01:14:08.765Z,0.00
2019-05-18T01:15:08.667Z,0.00
2019-05-18T01:16:08.564Z,0.00
2019-05-18T01:17:08.462Z,0.00
2019-05-18T01:18:08.361Z,0.00
2019-05-18T01:19:08.260Z,0.00
2019-05-18T01:20:08.162Z,0.00
2019-05-18T01:21:08.059Z,0.00
2019-05-18T01:22:07.963Z,0.00
2019-05-18T01:23:07.878Z,0.00
2019-05-18T01:24:07.753Z,0.00
2019-05-18T01:25:07.656Z,0.00
2019-05-18T01:26:07.555Z,0.00
2019-05-18T01:27:07.450Z,0.00
2019-05-18T01:28:07.354Z,0.00
2019-05-18T01:29:07.251Z,0.00
2019-05-18T01:30:07.149Z,0.00
2019-05-18T01:31:07.047Z,0.00
2019-05-18T01:32:06.943Z,0.00
2019-05-18T01:33:06.877Z,0.00
2019-05-18T01:34:06.742Z,0.00
2019-05-18T01:35:06.642Z,0.00
2019-05-18T01:36:06.541Z,0.00
2019-05-18T01:37:06.443Z,0.00
2019-05-18T01:38:06.338Z,0.00
2019-05-18T01:39:06.237Z,0.00
2019-05-18T01:40:06.135Z,0.00
2019-05-18T01:41:06.039Z,0.00
2019-05-18T01:42:05.981Z,0.00
2019-05-18T01:43:05.830Z,0.00
2019-05-18T01:44:05.731Z,0.00
2019-05-18T01:45:16.200Z,0.00
2019-05-18T01:46:05.528Z,0.00
2019-05-18T01:47:05.429Z,0.00
2019-05-18T01:48:13.480Z,0.00
2019-05-18T01:49:05.224Z,0.00
2019-05-18T01:50:05.123Z,0.00
2019-05-18T01:51:05.022Z,0.00
2019-05-18T01:52:04.938Z,0.00
2019-05-18T01:53:04.861Z,0.00
2019-05-18T01:54:04.726Z,0.00
2019-05-18T01:55:04.615Z,0.00
2019-05-18T01:56:04.513Z,0.00
2019-05-18T01:57:04.420Z,0.00
2019-05-18T01:58:04.312Z,0.00
2019-05-18T01:59:04.209Z,0.00
2019-05-18T02:00:04.216Z,0.00
2019-05-18T02:01:04.008Z,0.00
2019-05-18T02:02:03.903Z,0.00
2019-05-18T02:03:03.840Z,0.00
2019-05-18T02:04:03.715Z,0.00
2019-05-18T02:05:03.600Z,0.00
2019-05-18T02:06:03.498Z,0.00
2019-05-18T02:07:03.435Z,0.00
2019-05-18T02:08:03.295Z,0.00
2019-05-18T02:09:03.193Z,0.00
2019-05-18T02:10:03.096Z,0.00
2019-05-18T02:11:02.996Z,0.00
2019-05-18T02:12:02.895Z,0.00
2019-05-18T02:13:02.950Z,0.00
2019-05-18T02:14:02.691Z,0.00
2019-05-18T02:15:02.583Z,0.00
2019-05-18T02:16:02.483Z,0.00
2019-05-18T02:17:02.385Z,0.00
2019-05-18T02:18:02.280Z,0.00
2019-05-18T02:19:02.178Z,0.00
2019-05-18T02:20:02.077Z,0.00
2019-05-18T02:21:01.988Z,0.00
2019-05-18T02:22:01.875Z,0.00
2019-05-18T02:23:01.770Z,0.00
2019-05-18T02:24:01.680Z,0.00
2019-05-18T02:25:01.569Z,0.00
2019-05-18T02:26:01.466Z,0.00
2019-05-18T02:27:01.394Z,0.00
2019-05-18T02:28:01.276Z,0.00
2019-05-18T02:29:01.160Z,0.00
2019-05-18T02:30:01.070Z,4.00
2019-05-18T02:31:00.961Z,4.00
2019-05-18T02:32:00.895Z,4.00
2019-05-18T02:33:00.806Z,4.00
2019-05-18T02:34:00.653Z,4.00
2019-05-18T02:35:00.551Z,4.00
2019-05-18T02:36:00.447Z,8.00
2019-05-18T02:37:00.351Z,8.00
2019-05-18T02:38:00.248Z,8.00
2019-05-18T02:39:00.162Z,8.00
2019-05-18T02:40:00.042Z,8.00
2019-05-18T02:40:59.941Z,12.00
2019-05-18T02:41:59.842Z,12.00
2019-05-18T02:42:59.739Z,16.00
2019-05-18T02:43:59.649Z,16.00
2019-05-18T02:44:59.534Z,20.00
2019-05-18T02:45:59.432Z,20.00
2019-05-18T02:46:59.332Z,24.00
2019-05-18T02:47:59.241Z,24.00
2019-05-18T02:48:59.128Z,28.00
2019-05-18T02:49:59.028Z,32.00
2019-05-18T02:50:58.926Z,36.00
2019-05-18T02:51:58.854Z,40.00
2019-05-18T02:52:58.791Z,44.00
2019-05-18T02:53:58.623Z,48.00
2019-05-18T02:54:58.520Z,56.00
2019-05-18T02:55:58.415Z,64.00
2019-05-18T02:56:58.317Z,72.00
2019-05-18T02:57:58.211Z,76.00
2019-05-18T02:58:58.113Z,84.00
2019-05-18T02:59:58.009Z,92.00
2019-05-18T03:00:57.907Z,100.00
2019-05-18T03:01:57.806Z,112.00
2019-05-18T03:02:57.704Z,120.00
2019-05-18T03:03:57.608Z,128.00
2019-05-18T03:04:57.500Z,140.00
2019-05-18T03:05:57.399Z,156.00
2019-05-18T03:06:57.297Z,164.00
2019-05-18T03:07:57.198Z,184.00
2019-05-18T03:08:57.094Z,196.00
2019-05-18T03:09:56.992Z,212.00
2019-05-18T03:10:56.886Z,232.00
2019-05-18T03:11:56.825Z,244.00
2019-05-18T03:12:56.714Z,264.00
2019-05-18T03:13:56.585Z,284.00
2019-05-18T03:14:56.481Z,304.00
2019-05-18T03:15:56.376Z,328.00
2019-05-18T03:16:56.276Z,352.00
2019-05-18T03:17:56.178Z,376.00
2019-05-18T03:19:07.766Z,400.00
2019-05-18T03:19:55.972Z,420.00
2019-05-18T03:20:55.870Z,444.00
2019-05-18T03:21:55.770Z,472.00
2019-05-18T03:22:55.751Z,496.00
2019-05-18T03:23:55.564Z,524.00
2019-05-18T03:24:55.464Z,552.00
2019-05-18T03:25:55.372Z,580.00
2019-05-18T03:26:55.258Z,608.00
2019-05-18T03:27:55.156Z,640.00
2019-05-18T03:28:55.056Z,672.00
2019-05-18T03:29:54.952Z,704.00
2019-05-18T03:30:54.965Z,736.00
2019-05-18T03:31:54.821Z,772.00
2019-05-18T03:32:54.735Z,800.00
2019-05-18T03:33:54.546Z,832.00
2019-05-18T03:34:54.443Z,864.00
2019-05-18T03:35:54.353Z,904.00
2019-05-18T03:36:54.239Z,936.00
2019-05-18T03:37:54.135Z,968.00
2019-05-18T03:38:54.038Z,1008.00
2019-05-18T03:39:53.932Z,1040.00
2019-05-18T03:40:53.836Z,1076.00
2019-05-18T03:41:53.734Z,1112.00
2019-05-18T03:42:53.628Z,1152.00
2019-05-18T03:43:53.526Z,1192.00
2019-05-18T03:44:53.424Z,1232.00
2019-05-18T03:45:53.321Z,1268.00
2019-05-18T03:46:53.220Z,1312.00
2019-05-18T03:47:53.117Z,1352.00
2019-05-18T03:48:53.020Z,1388.00
2019-05-18T03:49:52.915Z,1432.00
2019-05-18T03:50:52.813Z,1472.00
2019-05-18T03:51:52.755Z,1516.00
2019-05-18T03:52:52.612Z,1552.00
2019-05-18T03:53:52.507Z,1596.00
2019-05-18T03:54:52.404Z,1632.00
2019-05-18T03:55:52.302Z,1688.00
2019-05-18T03:56:52.202Z,1728.00
2019-05-18T03:57:52.102Z,1752.00
2019-05-18T03:58:52.000Z,1764.00
2019-05-18T03:59:51.898Z,1796.00
2019-05-18T04:00:51.797Z,1828.00
2019-05-18T04:01:51.698Z,1848.00
2019-05-18T04:02:51.614Z,1884.00
2019-05-18T04:03:51.492Z,1924.00
2019-05-18T04:04:51.391Z,1960.00
2019-05-18T04:05:51.292Z,1996.00
2019-05-18T04:06:51.213Z,2044.00
2019-05-18T04:07:51.084Z,2084.00
2019-05-18T04:08:50.983Z,2116.00
2019-05-18T04:09:50.884Z,2132.00
2019-05-18T04:10:50.783Z,2160.00
2019-05-18T04:11:50.756Z,2196.00
2019-05-18T04:12:50.576Z,2244.00
2019-05-18T04:13:50.474Z,2288.00
2019-05-18T04:14:50.373Z,2356.00
2019-05-18T04:15:50.291Z,2308.00
2019-05-18T04:16:50.180Z,2304.00
2019-05-18T04:17:50.073Z,2356.00
2019-05-18T04:18:49.970Z,2356.00
2019-05-18T04:19:49.870Z,2444.00
2019-05-18T04:20:49.768Z,2508.00
2019-05-18T04:21:49.664Z,2548.00
2019-05-18T04:22:49.565Z,2688.00
2019-05-18T04:23:49.466Z,2816.00
2019-05-18T04:24:49.363Z,3076.00
2019-05-18T04:25:49.262Z,3128.00
2019-05-18T04:26:49.160Z,3324.00
2019-05-18T04:27:49.059Z,3340.00
2019-05-18T04:28:48.958Z,3488.00
2019-05-18T04:29:48.855Z,3332.00
2019-05-18T04:30:48.754Z,3416.00
2019-05-18T04:31:48.723Z,3868.00
2019-05-18T04:32:48.552Z,4028.00
2019-05-18T04:33:48.452Z,4100.00
2019-05-18T04:34:48.359Z,3980.00
2019-05-18T04:35:48.254Z,4008.00
2019-05-18T04:36:48.153Z,4252.00
2019-05-18T04:37:48.050Z,4380.00
2019-05-18T04:38:47.951Z,4512.00
2019-05-18T04:39:47.850Z,4508.00
2019-05-18T04:40:47.751Z,4628.00
2019-05-18T04:41:47.655Z,4624.00
2019-05-18T04:42:47.553Z,4688.00
2019-05-18T04:43:47.452Z,4824.00
2019-05-18T04:44:47.352Z,4828.00
2019-05-18T04:45:47.255Z,4932.00
2019-05-18T04:46:47.154Z,4928.00
2019-05-18T04:47:48.706Z,5016.00
2019-05-18T04:48:46.954Z,5068.00
2019-05-18T04:50:03.928Z,5148.00
2019-05-18T04:50:46.758Z,5248.00
2019-05-18T04:51:46.719Z,5260.00
2019-05-18T04:52:46.653Z,5316.00
2019-05-18T04:53:46.462Z,5364.00
2019-05-18T04:54:46.366Z,5456.00
2019-05-18T04:55:46.264Z,5512.00
2019-05-18T04:56:46.167Z,5524.00
2019-05-18T04:57:46.066Z,5592.00
2019-05-18T04:58:45.973Z,5648.00
2019-05-18T04:59:45.881Z,5720.00
2019-05-18T05:00:45.774Z,5756.00
2019-05-18T05:01:45.684Z,5792.00
2019-05-18T05:02:45.578Z,5916.00
2019-05-18T05:03:45.484Z,5932.00
2019-05-18T05:04:45.385Z,6004.00
2019-05-18T05:05:45.290Z,6112.00
2019-05-18T05:06:45.191Z,6208.00
2019-05-18T05:07:45.092Z,6156.00
2019-05-18T05:08:44.997Z,6348.00
2019-05-18T05:09:44.900Z,6400.00
2019-05-18T05:10:44.809Z,6360.00
2019-05-18T05:11:44.719Z,6404.00
2019-05-18T05:12:44.677Z,6524.00
2019-05-18T05:13:44.511Z,6524.00
2019-05-18T05:14:44.416Z,6540.00
2019-05-18T05:15:44.319Z,6664.00
2019-05-18T05:16:44.223Z,6596.00
2019-05-18T05:17:44.127Z,6680.00
2019-05-18T05:18:44.032Z,6688.00
2019-05-18T05:19:43.933Z,6732.00
2019-05-18T05:20:43.856Z,6736.00
2019-05-18T05:21:43.744Z,6940.00
2019-05-18T05:22:43.647Z,6968.00
2019-05-18T05:23:43.550Z,6972.00
2019-05-18T05:24:43.455Z,7192.00
2019-05-18T05:25:43.361Z,7288.00
2019-05-18T05:26:43.267Z,7384.00
2019-05-18T05:27:43.169Z,7552.00
2019-05-18T05:28:43.076Z,7768.00
2019-05-18T05:29:42.980Z,7784.00
2019-05-18T05:30:42.882Z,7880.00
2019-05-18T05:31:42.788Z,7776.00
2019-05-18T05:32:42.701Z,7656.00
2019-05-18T05:33:42.648Z,7524.00
2019-05-18T05:34:42.578Z,7524.00
2019-05-18T05:35:42.413Z,7508.00
2019-05-18T05:36:42.312Z,7540.00
2019-05-18T05:37:42.219Z,7536.00
2019-05-18T05:38:42.125Z,7464.00
2019-05-18T05:39:42.029Z,7532.00
2019-05-18T05:40:41.945Z,7564.00
2019-05-18T05:41:41.841Z,7604.00
2019-05-18T05:42:41.746Z,7692.00
2019-05-18T05:43:41.651Z,7672.00
2019-05-18T05:44:41.562Z,7700.00
2019-05-18T05:45:41.464Z,7812.00
2019-05-18T05:46:41.371Z,7836.00
2019-05-18T05:47:41.278Z,7816.00
2019-05-18T05:48:41.181Z,7920.00
2019-05-18T05:49:41.091Z,8000.00
2019-05-18T05:50:40.992Z,7984.00
2019-05-18T05:51:40.897Z,8060.00
2019-05-18T05:52:40.812Z,8164.00
2019-05-18T05:53:40.709Z,8184.00
2019-05-18T05:54:40.621Z,8248.00
2019-05-18T05:55:40.553Z,8336.00
2019-05-18T05:56:40.428Z,8452.00
2019-05-18T05:57:40.338Z,8428.00
2019-05-18T05:58:40.241Z,8488.00
2019-05-18T05:59:40.146Z,8580.00
2019-05-18T06:00:40.056Z,8616.00
2019-05-18T06:01:39.959Z,8668.00
2019-05-18T06:02:39.867Z,8772.00
2019-05-18T06:03:39.773Z,8916.00
2019-05-18T06:04:39.676Z,8972.00
2019-05-18T06:05:39.583Z,9100.00
2019-05-18T06:06:39.491Z,9156.00
2019-05-18T06:07:39.397Z,9280.00
2019-05-18T06:08:39.303Z,9360.00
2019-05-18T06:09:39.211Z,9452.00
2019-05-18T06:10:39.119Z,9580.00
2019-05-18T06:11:39.021Z,9464.00
2019-05-18T06:12:38.932Z,9596.00
2019-05-18T06:13:38.838Z,9856.00
2019-05-18T06:14:38.751Z,9912.00
2019-05-18T06:15:38.673Z,10208.00
2019-05-18T06:16:38.603Z,10484.00
2019-05-18T06:17:38.542Z,10664.00
2019-05-18T06:18:38.435Z,10404.00
2019-05-18T06:19:38.283Z,10224.00
2019-05-18T06:20:50.537Z,10216.00
2019-05-18T06:21:38.098Z,10132.00
2019-05-18T06:22:38.008Z,10364.00
2019-05-18T06:23:37.913Z,10544.00
2019-05-18T06:24:37.822Z,10508.00
2019-05-18T06:25:37.732Z,10652.00
2019-05-18T06:26:37.639Z,10756.00
2019-05-18T06:27:37.543Z,10864.00
2019-05-18T06:28:37.537Z,10968.00
2019-05-18T06:29:37.446Z,10984.00
2019-05-18T06:30:37.362Z,11152.00
2019-05-18T06:31:37.259Z,11296.00
2019-05-18T06:32:37.180Z,11492.00
2019-05-18T06:33:37.077Z,11624.00
2019-05-18T06:34:36.984Z,11712.00
2019-05-18T06:35:36.892Z,11804.00
2019-05-18T06:36:36.803Z,11772.00
2019-05-18T06:37:36.713Z,11772.00
2019-05-18T06:38:36.635Z,11872.00
2019-05-18T06:39:36.547Z,12084.00
2019-05-18T06:40:36.431Z,12288.00
2019-05-18T06:41:36.343Z,12404.00
2019-05-18T06:42:36.253Z,12516.00
2019-05-18T06:43:36.156Z,12612.00
2019-05-18T06:44:36.066Z,12928.00
2019-05-18T06:45:35.985Z,13128.00
2019-05-18T06:46:35.881Z,13392.00
2019-05-18T06:47:35.788Z,13556.00
2019-05-18T06:48:35.699Z,13812.00
2019-05-18T06:49:35.606Z,13892.00
2019-05-18T06:50:35.513Z,13908.00
2019-05-18T06:51:35.423Z,14036.00
2019-05-18T06:52:35.332Z,14220.00
2019-05-18T06:53:35.243Z,14416.00
2019-05-18T06:54:35.150Z,14288.00
2019-05-18T06:55:35.058Z,14376.00
2019-05-18T06:56:34.969Z,14360.00
2019-05-18T06:57:34.875Z,14600.00
2019-05-18T06:58:34.786Z,14956.00
2019-05-18T06:59:34.696Z,15076.00
2019-05-18T07:00:34.603Z,15020.00
2019-05-18T07:01:34.582Z,14992.00
2019-05-18T07:02:34.433Z,15176.00
2019-05-18T07:03:34.348Z,15476.00
2019-05-18T07:04:34.242Z,16056.00
2019-05-18T07:05:34.152Z,16480.00
2019-05-18T07:06:34.061Z,16912.00
2019-05-18T07:07:33.970Z,16924.00
2019-05-18T07:08:33.879Z,16896.00
2019-05-18T07:09:33.797Z,16940.00
2019-05-18T07:10:33.700Z,16824.00
2019-05-18T07:11:33.608Z,16764.00
2019-05-18T07:12:33.520Z,16872.00
2019-05-18T07:13:33.450Z,16940.00
2019-05-18T07:14:33.338Z,17248.00
2019-05-18T07:15:33.245Z,17376.00
2019-05-18T07:16:33.158Z,17536.00
2019-05-18T07:17:34.650Z,17920.00
2019-05-18T07:18:32.984Z,18304.00
2019-05-18T07:19:32.888Z,18336.00
2019-05-18T07:20:32.799Z,18464.00
2019-05-18T07:21:32.708Z,18528.00
2019-05-18T07:22:32.621Z,18624.00
2019-05-18T07:23:32.559Z,18656.00
2019-05-18T07:24:32.483Z,18912.00
2019-05-18T07:25:32.345Z,19712.00
2019-05-18T07:26:32.256Z,20000.00
2019-05-18T07:27:32.168Z,20256.00
2019-05-18T07:28:32.075Z,20608.00
2019-05-18T07:29:31.984Z,21312.00
2019-05-18T07:30:31.892Z,22400.00
2019-05-18T07:31:31.811Z,23968.00
2019-05-18T07:32:31.712Z,25920.00
2019-05-18T07:33:31.633Z,27744.00
2019-05-18T07:34:31.534Z,29600.00
2019-05-18T07:35:31.443Z,32928.00
2019-05-18T07:36:31.356Z,39008.00
2019-05-18T07:37:31.274Z,47840.00
2019-05-18T07:38:31.173Z,59840.00
2019-05-18T07:39:31.084Z,67328.00
2019-05-18T07:40:30.997Z,71392.00
2019-05-18T07:41:44.520Z,70592.00
2019-05-18T07:42:30.815Z,66912.00
2019-05-18T07:43:30.725Z,64256.00
2019-05-18T07:44:30.635Z,65920.00
2019-05-18T07:45:30.543Z,73312.00
2019-05-18T07:46:30.531Z,85184.00
2019-05-18T07:47:30.360Z,90656.00
2019-05-18T07:48:30.274Z,90560.00
2019-05-18T07:49:30.184Z,95136.00
2019-05-18T07:50:30.097Z,98944.00
2019-05-18T07:51:37.165Z,105536.00
2019-05-18T07:52:29.915Z,82304.00
2019-05-18T07:53:29.828Z,47008.00
2019-05-18T07:54:29.740Z,13504.00
2019-05-18T07:55:29.646Z,8680.00
2019-05-18T07:56:29.567Z,8548.00
2019-05-18T07:57:29.465Z,8160.00
2019-05-18T07:58:29.376Z,7920.00
2019-05-18T07:59:29.202Z,7924.00
2019-05-18T08:00:29.112Z,8056.00
2019-05-18T08:01:29.015Z,7984.00
2019-05-18T08:02:28.927Z,7716.00
2019-05-18T08:03:28.832Z,7704.00
2019-05-18T08:04:28.742Z,7516.00
2019-05-18T08:05:28.651Z,7220.00
2019-05-18T08:06:28.559Z,7188.00
2019-05-18T08:07:28.481Z,7360.00
2019-05-18T08:08:28.408Z,7344.00
2019-05-18T08:09:28.282Z,7184.00
2019-05-18T08:10:28.191Z,7220.00
2019-05-18T08:11:28.094Z,7292.00
2019-05-18T08:12:28.014Z,7180.00
2019-05-18T08:13:27.909Z,7100.00
2019-05-18T08:14:27.815Z,7228.00
2019-05-18T08:15:27.722Z,7516.00
2019-05-18T08:16:27.626Z,7176.00
2019-05-18T08:17:27.534Z,7016.00
2019-05-18T08:18:27.442Z,7048.00
2019-05-18T08:19:27.346Z,7052.00
2019-05-18T08:20:27.250Z,7300.00
2019-05-18T08:21:27.164Z,7532.00
2019-05-18T08:22:27.064Z,7584.00
2019-05-18T08:23:26.967Z,7664.00
2019-05-18T08:24:26.872Z,7748.00
2019-05-18T08:25:26.779Z,7948.00
2019-05-18T08:26:26.682Z,8140.00
2019-05-18T08:27:26.592Z,8392.00
2019-05-18T08:28:26.492Z,8476.00
2019-05-18T08:29:26.427Z,8640.00
2019-05-18T08:30:26.368Z,8876.00
2019-05-18T08:31:26.206Z,8764.00
2019-05-18T08:32:26.114Z,8708.00
2019-05-18T08:33:26.013Z,8700.00
2019-05-18T08:34:25.921Z,8840.00
2019-05-18T08:35:27.276Z,8992.00
2019-05-18T08:36:25.728Z,9104.00
2019-05-18T08:37:25.627Z,9376.00
2019-05-18T08:38:25.537Z,9520.00
2019-05-18T08:39:25.442Z,9236.00
2019-05-18T08:40:25.342Z,9588.00
2019-05-18T08:41:25.244Z,11156.00
2019-05-18T08:42:25.146Z,20192.00
2019-05-18T08:43:25.053Z,36960.00
2019-05-18T08:44:24.956Z,49664.00
2019-05-18T08:45:24.862Z,52960.00
2019-05-18T08:46:24.762Z,54016.00
2019-05-18T08:47:24.667Z,52608.00
2019-05-18T08:48:24.572Z,51328.00
2019-05-18T08:49:24.476Z,51936.00
2019-05-18T08:50:24.411Z,52672.00
2019-05-18T08:51:24.338Z,54464.00
2019-05-18T08:52:24.192Z,54112.00
2019-05-18T08:53:24.098Z,53984.00
2019-05-18T08:54:24.006Z,55360.00
2019-05-18T08:55:23.912Z,57632.00
2019-05-18T08:56:23.820Z,58272.00
2019-05-18T08:57:23.730Z,58336.00
2019-05-18T08:58:23.633Z,59872.00
2019-05-18T08:59:23.542Z,61312.00
2019-05-18T09:00:23.448Z,63616.00
2019-05-18T09:01:23.356Z,65472.00
2019-05-18T09:02:23.268Z,65216.00
2019-05-18T09:03:23.178Z,63968.00
2019-05-18T09:04:23.086Z,62624.00
2019-05-18T09:05:22.997Z,63392.00
2019-05-18T09:06:22.903Z,67552.00
2019-05-18T09:07:22.814Z,71200.00
2019-05-18T09:08:22.772Z,71776.00
2019-05-18T09:09:22.632Z,72224.00
2019-05-18T09:10:22.544Z,73536.00
2019-05-18T09:11:22.452Z,72352.00
2019-05-18T09:12:22.389Z,72320.00
2019-05-18T09:13:22.319Z,70944.00
2019-05-18T09:14:22.187Z,67392.00
2019-05-18T09:15:22.098Z,63232.00
2019-05-18T09:16:22.007Z,60544.00
2019-05-18T09:17:21.918Z,59776.00
2019-05-18T09:18:21.915Z,59008.00
2019-05-18T09:19:21.825Z,58784.00
2019-05-18T09:20:21.735Z,57856.00
2019-05-18T09:21:21.646Z,57184.00
2019-05-18T09:22:23.392Z,56896.00
2019-05-18T09:23:21.470Z,57024.00
2019-05-18T09:24:21.380Z,59808.00
2019-05-18T09:25:21.296Z,59456.00
2019-05-18T09:26:21.208Z,59584.00
2019-05-18T09:27:21.116Z,59264.00
2019-05-18T09:28:21.027Z,59168.00
2019-05-18T09:29:20.953Z,59232.00
2019-05-18T09:30:20.854Z,58784.00
2019-05-18T09:31:20.767Z,58944.00
2019-05-18T09:32:20.677Z,58976.00
2019-05-18T09:33:20.588Z,59488.00
2019-05-18T09:34:20.499Z,59904.00
2019-05-18T09:35:20.413Z,59840.00
2019-05-18T09:36:20.393Z,60192.00
2019-05-18T09:37:20.252Z,59776.00
2019-05-18T09:38:20.150Z,60224.00
2019-05-18T09:39:20.060Z,60096.00
2019-05-18T09:40:19.975Z,60032.00
2019-05-18T09:41:19.889Z,59360.00
2019-05-18T09:42:19.798Z,57408.00
2019-05-18T09:43:19.712Z,57888.00
2019-05-18T09:44:19.630Z,57600.00
2019-05-18T09:45:19.577Z,57184.00
2019-05-18T09:46:19.451Z,60320.00
2019-05-18T09:47:19.363Z,61024.00
2019-05-18T09:48:19.274Z,55872.00
2019-05-18T09:49:19.193Z,54080.00
2019-05-18T09:50:19.104Z,53280.00
2019-05-18T09:51:19.022Z,52192.00
2019-05-18T09:52:18.929Z,52224.00
2019-05-18T09:53:18.846Z,51168.00
2019-05-18T09:54:18.757Z,50944.00
2019-05-18T09:55:18.671Z,49760.00
2019-05-18T09:56:18.583Z,49216.00
2019-05-18T09:57:18.499Z,49888.00
2019-05-18T09:58:18.411Z,48928.00
2019-05-18T09:59:18.358Z,47936.00
2019-05-18T10:00:18.292Z,47872.00
2019-05-18T10:01:18.151Z,47904.00
2019-05-18T10:02:18.125Z,48000.00
2019-05-18T10:03:17.982Z,50208.00
2019-05-18T10:04:17.934Z,50848.00
2019-05-18T10:05:17.821Z,47744.00
2019-05-18T10:06:17.719Z,45792.00
2019-05-18T10:07:17.639Z,45056.00
2019-05-18T10:08:17.550Z,44704.00
2019-05-18T10:09:17.514Z,48896.00
2019-05-18T10:10:17.381Z,60832.00
2019-05-18T10:11:17.294Z,91552.00
2019-05-18T10:12:17.209Z,156672.00
2019-05-18T10:13:17.124Z,217568.00
2019-05-18T10:14:17.040Z,191328.00
2019-05-18T10:15:16.956Z,218880.00
2019-05-18T10:16:16.866Z,184800.00
2019-05-18T10:17:16.787Z,172448.00
2019-05-18T10:18:16.698Z,165536.00
2019-05-18T10:19:16.645Z,162560.00
2019-05-18T10:20:16.531Z,156160.00
2019-05-18T10:21:16.454Z,156608.00
2019-05-18T10:22:16.361Z,153632.00
2019-05-18T10:23:16.336Z,153952.00
2019-05-18T10:24:16.270Z,152192.00
2019-05-18T10:25:16.109Z,121536.00
2019-05-18T10:26:16.030Z,162016.00
2019-05-18T10:27:15.942Z,151808.00
2019-05-18T10:28:15.858Z,151680.00
2019-05-18T10:29:15.772Z,153984.00
2019-05-18T10:30:15.693Z,153632.00
2019-05-18T10:31:15.609Z,152640.00
2019-05-18T10:32:15.526Z,151776.00
2019-05-18T10:33:15.444Z,153056.00
2019-05-18T10:34:15.358Z,145312.00
2019-05-18T10:35:15.275Z,128480.00
2019-05-18T10:36:15.194Z,120288.00
2019-05-18T10:37:15.110Z,117568.00
2019-05-18T10:38:15.026Z,117920.00
2019-05-18T10:39:14.942Z,119456.00
2019-05-18T10:40:14.860Z,128992.00
2019-05-18T10:41:14.776Z,150208.00
2019-05-18T10:42:14.694Z,154432.00
2019-05-18T10:43:14.613Z,139264.00
2019-05-18T10:44:14.532Z,124032.00
2019-05-18T10:45:14.447Z,122432.00
2019-05-18T10:46:14.363Z,121632.00
2019-05-18T10:47:14.304Z,122272.00
2019-05-18T10:48:14.323Z,121888.00
2019-05-18T10:49:14.117Z,119680.00
2019-05-18T10:50:14.036Z,118208.00
2019-05-18T10:51:13.959Z,119200.00
2019-05-18T10:52:13.869Z,121696.00
2019-05-18T10:53:27.756Z,120960.00
2019-05-18T10:54:13.705Z,117984.00
2019-05-18T10:55:13.623Z,115680.00
2019-05-18T10:56:13.540Z,117248.00
2019-05-18T10:57:13.461Z,119392.00
2019-05-18T10:58:13.376Z,115264.00
2019-05-18T10:59:13.293Z,115904.00
2019-05-18T11:00:13.213Z,117280.00
2019-05-18T11:01:13.125Z,116928.00
2019-05-18T11:02:13.043Z,117024.00
2019-05-18T11:03:12.962Z,114592.00
2019-05-18T11:04:12.881Z,115040.00
2019-05-18T11:05:12.808Z,116736.00
2019-05-18T11:06:12.712Z,115936.00
2019-05-18T11:07:12.630Z,114496.00
2019-05-18T11:08:12.546Z,114880.00
2019-05-18T11:09:12.461Z,113088.00
2019-05-18T11:10:12.381Z,117184.00
2019-05-18T11:11:12.295Z,115360.00
2019-05-18T11:12:12.267Z,115520.00
2019-05-18T11:13:12.208Z,114848.00
2019-05-18T11:14:12.046Z,117696.00
2019-05-18T11:15:11.963Z,117824.00
2019-05-18T11:16:11.893Z,116512.00
2019-05-18T11:17:11.796Z,116704.00
2019-05-18T11:18:11.714Z,116192.00
2019-05-18T11:19:11.630Z,114336.00
2019-05-18T11:20:11.572Z,112320.00
2019-05-18T11:21:11.471Z,117792.00
2019-05-18T11:22:11.383Z,119840.00
2019-05-18T11:23:11.297Z,120352.00
2019-05-18T11:24:11.216Z,103712.00
2019-05-18T11:25:11.136Z,37760.00
2019-05-18T11:26:11.050Z,9032.00
2019-05-18T11:27:10.970Z,8968.00
2019-05-18T11:28:10.801Z,8872.00
2019-05-18T11:29:10.801Z,8324.00
2019-05-18T11:30:10.757Z,7668.00
2019-05-18T11:31:10.550Z,7428.00
2019-05-18T11:32:10.466Z,7512.00
2019-05-18T11:33:10.380Z,7524.00
2019-05-18T11:34:10.296Z,7540.00
2019-05-18T11:35:10.219Z,7744.00
2019-05-18T11:36:10.196Z,7860.00
2019-05-18T11:37:10.037Z,8060.00
2019-05-18T11:38:09.947Z,8252.00
2019-05-18T11:39:09.860Z,8064.00
2019-05-18T11:40:09.807Z,7872.00
2019-05-18T11:41:09.684Z,7688.00
2019-05-18T11:42:09.594Z,7704.00
2019-05-18T11:43:09.505Z,7844.00
2019-05-18T11:44:10.933Z,7764.00
2019-05-18T11:45:09.329Z,7552.00
2019-05-18T11:46:09.240Z,7440.00
2019-05-18T11:47:09.147Z,7500.00
2019-05-18T11:48:09.061Z,7696.00
2019-05-18T11:49:08.966Z,8760.00
2019-05-18T11:50:08.879Z,7568.00
2019-05-18T11:51:08.785Z,7636.00
2019-05-18T11:52:08.696Z,8064.00
2019-05-18T11:53:08.603Z,9084.00
2019-05-18T11:54:08.518Z,10904.00
2019-05-18T11:55:08.422Z,13916.00
2019-05-18T11:56:08.334Z,12476.00
2019-05-18T11:57:08.275Z,48000.00
2019-05-18T11:58:08.182Z,101056.00
2019-05-18T11:59:08.110Z,109376.00
2019-05-18T12:00:07.964Z,109600.00
2019-05-18T12:01:07.874Z,110272.00
2019-05-18T12:02:07.786Z,110432.00
2019-05-18T12:03:07.694Z,111680.00
2019-05-18T12:04:07.599Z,109248.00
2019-05-18T12:05:07.513Z,13600.00
2019-05-18T12:06:07.422Z,106080.00
2019-05-18T12:07:07.421Z,104320.00
2019-05-18T12:08:07.327Z,101376.00
2019-05-18T12:09:07.238Z,104576.00
2019-05-18T12:10:07.148Z,104640.00